Impacts TAF Board
For situational awareness. Not to be used for flight planning purposes.
IDs:

KEWR - Newark Intl, NJ, US

Issued at 0525 UTC 03 Aug 2021
Updated at 0831 UTC 03 Aug 2021
Potential Impact None Slight Moderate High
Time0751Z 03/09Z 03/10Z 03/11Z 03/12Z 03/13Z 03/14Z 03/15Z 03/16Z 03/17Z 03/18Z 03/19Z 03/20Z 03/21Z>>
Type OBS PRVL PRVL PRVL PRVL PRVL PRVL PRVL PRVL PRVL PRVL PRVL PRVL PRVL
VIS 10 >6 >6 >6 >6 >6 >6 >6 >6 >6 >6 >6 >6 >6
CIG -- -- -- -- -- -- -- -- -- -- -- -- -- --
Cover SCT SKC SKC SKC SKC SKC SKC SKC SKC SKC SKC SCT SCT SCT
FltCat VFR VFR VFR VFR VFR VFR VFR VFR VFR VFR VFR VFR VFR VFR
WX -- -- -- -- -- -- -- -- -- -- -- -- -- --
WDir 30 360 360 360 360 360 360 360 360 360 360 160 160 160
WSpd 3 4 4 4 4 4 4 4 4 4 4 6 6 6
WGst -- -- -- -- -- -- -- -- -- -- -- -- -- --
Raw TAF
KEWR 030525Z 0306/0412 36004KT P6SM SKC
  FM031900 16006KT P6SM FEW050 SCT250
  FM040200 VRB04KT P6SM BKN050


Raw METAR
KEWR 030751Z 03003KT 10SM FEW070 SCT250 19/11 A3010 RMK AO2 SLP192 T01890106 $
KEWR 030651Z 00000KT 10SM FEW070 19/11 A3010 RMK AO2 SLP190 T01890106 $
KEWR 030551Z 01005KT 10SM FEW070 19/11 A3009 RMK AO2 SLP189 T01940111 10267 20194 50008 $

METAR Board
Radar Display
Forecast Discussion
For situational awareness. Not to be used for flight planning purposes.